sensor_id;sensor_type;location;lat;lon;timestamp;P1;durP1;ratioP1;P2;durP2;ratioP2
56997;SDS011;42890;44.244;22.530;2023-02-24T00:02:23;47.60;;;34.85;;
56997;SDS011;42890;44.244;22.530;2023-02-24T00:04:49;39.53;;;29.50;;
56997;SDS011;42890;44.244;22.530;2023-02-24T00:07:16;33.88;;;25.08;;
56997;SDS011;42890;44.244;22.530;2023-02-24T00:09:42;36.83;;;29.23;;
56997;SDS011;42890;44.244;22.530;2023-02-24T00:12:12;45.22;;;33.90;;
56997;SDS011;42890;44.244;22.530;2023-02-24T00:14:39;39.38;;;33.95;;
56997;SDS011;42890;44.244;22.530;2023-02-24T00:17:06;35.08;;;29.63;;
56997;SDS011;42890;44.244;22.530;2023-02-24T00:19:32;31.13;;;25.35;;
56997;SDS011;42890;44.244;22.530;2023-02-24T00:21:59;46.47;;;33.05;;
56997;SDS011;42890;44.244;22.530;2023-02-24T00:24:25;47.30;;;33.72;;
56997;SDS011;42890;44.244;22.530;2023-02-24T00:26:52;34.78;;;30.77;;
56997;SDS011;42890;44.244;22.530;2023-02-24T00:29:19;41.47;;;31.17;;
56997;SDS011;42890;44.244;22.530;2023-02-24T00:31:45;47.83;;;37.50;;
56997;SDS011;42890;44.244;22.530;2023-02-24T00:34:11;67.93;;;52.28;;
56997;SDS011;42890;44.244;22.530;2023-02-24T00:36:39;68.95;;;48.08;;
56997;SDS011;42890;44.244;22.530;2023-02-24T00:39:06;70.93;;;43.35;;
56997;SDS011;42890;44.244;22.530;2023-02-24T00:41:36;48.95;;;29.50;;
56997;SDS011;42890;44.244;22.530;2023-02-24T00:44:04;28.05;;;22.90;;
56997;SDS011;42890;44.244;22.530;2023-02-24T00:46:39;27.13;;;23.40;;
56997;SDS011;42890;44.244;22.530;2023-02-24T00:49:07;36.42;;;28.77;;
56997;SDS011;42890;44.244;22.530;2023-02-24T00:51:38;34.50;;;24.83;;
56997;SDS011;42890;44.244;22.530;2023-02-24T00:54:05;31.58;;;28.15;;
56997;SDS011;42890;44.244;22.530;2023-02-24T00:56:32;41.38;;;30.33;;
56997;SDS011;42890;44.244;22.530;2023-02-24T00:58:59;43.17;;;32.20;;
56997;SDS011;42890;44.244;22.530;2023-02-24T01:01:26;34.55;;;30.50;;
56997;SDS011;42890;44.244;22.530;2023-02-24T01:03:55;37.47;;;32.38;;
56997;SDS011;42890;44.244;22.530;2023-02-24T01:06:22;33.42;;;25.83;;
56997;SDS011;42890;44.244;22.530;2023-02-24T01:08:49;43.92;;;31.52;;
56997;SDS011;42890;44.244;22.530;2023-02-24T01:11:16;34.22;;;26.63;;
56997;SDS011;42890;44.244;22.530;2023-02-24T01:14:23;28.02;;;24.33;;
56997;SDS011;42890;44.244;22.530;2023-02-24T01:16:49;26.45;;;23.70;;
56997;SDS011;42890;44.244;22.530;2023-02-24T01:19:16;36.75;;;23.95;;
56997;SDS011;42890;44.244;22.530;2023-02-24T01:21:43;24.85;;;21.58;;
56997;SDS011;42890;44.244;22.530;2023-02-24T01:24:10;26.02;;;22.42;;
56997;SDS011;42890;44.244;22.530;2023-02-24T01:26:37;27.70;;;22.88;;
56997;SDS011;42890;44.244;22.530;2023-02-24T01:29:03;30.92;;;23.52;;
56997;SDS011;42890;44.244;22.530;2023-02-24T01:31:29;26.70;;;21.13;;
56997;SDS011;42890;44.244;22.530;2023-02-24T01:33:55;32.70;;;26.45;;
56997;SDS011;42890;44.244;22.530;2023-02-24T01:36:22;38.05;;;29.63;;
56997;SDS011;42890;44.244;22.530;2023-02-24T01:38:50;32.47;;;23.10;;
56997;SDS011;42890;44.244;22.530;2023-02-24T01:41:20;28.55;;;23.63;;
56997;SDS011;42890;44.244;22.530;2023-02-24T01:44:03;32.65;;;24.10;;
56997;SDS011;42890;44.244;22.530;2023-02-24T01:46:38;40.22;;;33.97;;
56997;SDS011;42890;44.244;22.530;2023-02-24T01:54:37;29.02;;;24.17;;
56997;SDS011;42890;44.244;22.530;2023-02-24T01:57:07;34.10;;;27.42;;
56997;SDS011;42890;44.244;22.530;2023-02-24T01:59:34;52.33;;;37.60;;
56997;SDS011;42890;44.244;22.530;2023-02-24T02:02:00;41.63;;;26.60;;
56997;SDS011;42890;44.244;22.530;2023-02-24T02:04:30;28.95;;;25.95;;
56997;SDS011;42890;44.244;22.530;2023-02-24T02:06:59;36.88;;;23.98;;
56997;SDS011;42890;44.244;22.530;2023-02-24T02:09:26;27.52;;;24.17;;
56997;SDS011;42890;44.244;22.530;2023-02-24T02:11:53;32.63;;;24.83;;
56997;SDS011;42890;44.244;22.530;2023-02-24T02:14:20;34.45;;;24.88;;
56997;SDS011;42890;44.244;22.530;2023-02-24T02:16:54;33.42;;;24.08;;
56997;SDS011;42890;44.244;22.530;2023-02-24T02:22:05;36.97;;;27.03;;
56997;SDS011;42890;44.244;22.530;2023-02-24T02:35:02;34.75;;;26.80;;
56997;SDS011;42890;44.244;22.530;2023-02-24T02:40:20;40.92;;;28.73;;
56997;SDS011;42890;44.244;22.530;2023-02-24T02:45:26;44.50;;;29.08;;
56997;SDS011;42890;44.244;22.530;2023-02-24T02:48:02;51.72;;;29.63;;
56997;SDS011;42890;44.244;22.530;2023-02-24T02:50:44;37.72;;;27.90;;
56997;SDS011;42890;44.244;22.530;2023-02-24T02:53:13;35.47;;;28.88;;
56997;SDS011;42890;44.244;22.530;2023-02-24T02:55:45;32.70;;;28.83;;
56997;SDS011;42890;44.244;22.530;2023-02-24T02:58:14;49.30;;;29.20;;
56997;SDS011;42890;44.244;22.530;2023-02-24T03:00:43;41.97;;;29.67;;
56997;SDS011;42890;44.244;22.530;2023-02-24T03:03:22;42.63;;;30.15;;
56997;SDS011;42890;44.244;22.530;2023-02-24T03:05:55;37.60;;;31.63;;
56997;SDS011;42890;44.244;22.530;2023-02-24T03:08:22;41.28;;;31.88;;
56997;SDS011;42890;44.244;22.530;2023-02-24T03:10:49;43.92;;;31.67;;
56997;SDS011;42890;44.244;22.530;2023-02-24T03:13:17;38.67;;;31.42;;
56997;SDS011;42890;44.244;22.530;2023-02-24T03:15:46;49.22;;;30.60;;
56997;SDS011;42890;44.244;22.530;2023-02-24T03:18:14;42.78;;;31.55;;
56997;SDS011;42890;44.244;22.530;2023-02-24T03:20:52;35.78;;;30.60;;
56997;SDS011;42890;44.244;22.530;2023-02-24T03:23:22;37.03;;;33.08;;
56997;SDS011;42890;44.244;22.530;2023-02-24T03:28:21;35.70;;;31.92;;
56997;SDS011;42890;44.244;22.530;2023-02-24T03:30:58;49.20;;;33.40;;
56997;SDS011;42890;44.244;22.530;2023-02-24T03:33:26;46.83;;;33.72;;
56997;SDS011;42890;44.244;22.530;2023-02-24T03:35:55;37.05;;;32.67;;
56997;SDS011;42890;44.244;22.530;2023-02-24T03:38:26;38.10;;;32.38;;
56997;SDS011;42890;44.244;22.530;2023-02-24T03:40:52;49.97;;;33.05;;
56997;SDS011;42890;44.244;22.530;2023-02-24T03:43:22;44.00;;;32.38;;
56997;SDS011;42890;44.244;22.530;2023-02-24T03:45:50;43.28;;;31.85;;
56997;SDS011;42890;44.244;22.530;2023-02-24T03:48:16;52.58;;;33.70;;
56997;SDS011;42890;44.244;22.530;2023-02-24T03:50:43;44.55;;;31.90;;
56997;SDS011;42890;44.244;22.530;2023-02-24T03:53:14;60.70;;;34.38;;
56997;SDS011;42890;44.244;22.530;2023-02-24T03:58:14;51.80;;;35.78;;
56997;SDS011;42890;44.244;22.530;2023-02-24T04:11:45;45.88;;;34.05;;
56997;SDS011;42890;44.244;22.530;2023-02-24T04:14:16;42.45;;;35.08;;
56997;SDS011;42890;44.244;22.530;2023-02-24T04:19:43;39.80;;;35.65;;
56997;SDS011;42890;44.244;22.530;2023-02-24T04:22:12;40.50;;;36.22;;
56997;SDS011;42890;44.244;22.530;2023-02-24T04:24:40;43.13;;;35.30;;
56997;SDS011;42890;44.244;22.530;2023-02-24T04:27:08;43.08;;;34.42;;
56997;SDS011;42890;44.244;22.530;2023-02-24T04:29:37;43.17;;;36.00;;
56997;SDS011;42890;44.244;22.530;2023-02-24T04:32:05;130.48;;;65.95;;
56997;SDS011;42890;44.244;22.530;2023-02-24T04:34:32;63.85;;;47.67;;
56997;SDS011;42890;44.244;22.530;2023-02-24T04:36:58;50.42;;;40.78;;
56997;SDS011;42890;44.244;22.530;2023-02-24T04:39:26;43.60;;;38.88;;
56997;SDS011;42890;44.244;22.530;2023-02-24T04:41:52;39.88;;;35.63;;
56997;SDS011;42890;44.244;22.530;2023-02-24T04:44:19;44.10;;;34.33;;
56997;SDS011;42890;44.244;22.530;2023-02-24T04:46:46;39.70;;;34.45;;
56997;SDS011;42890;44.244;22.530;2023-02-24T04:49:13;47.60;;;36.42;;
56997;SDS011;42890;44.244;22.530;2023-02-24T04:51:40;49.88;;;34.05;;
56997;SDS011;42890;44.244;22.530;2023-02-24T04:54:13;48.45;;;35.38;;
56997;SDS011;42890;44.244;22.530;2023-02-24T04:56:44;39.67;;;33.45;;
56997;SDS011;42890;44.244;22.530;2023-02-24T04:59:12;45.22;;;36.22;;
56997;SDS011;42890;44.244;22.530;2023-02-24T05:01:39;40.55;;;34.97;;
56997;SDS011;42890;44.244;22.530;2023-02-24T05:04:07;38.53;;;34.45;;
56997;SDS011;42890;44.244;22.530;2023-02-24T05:06:33;47.90;;;33.72;;
56997;SDS011;42890;44.244;22.530;2023-02-24T05:09:00;43.08;;;35.03;;
56997;SDS011;42890;44.244;22.530;2023-02-24T05:11:34;39.78;;;35.50;;
56997;SDS011;42890;44.244;22.530;2023-02-24T05:14:02;39.70;;;33.97;;
56997;SDS011;42890;44.244;22.530;2023-02-24T05:16:28;36.50;;;32.63;;
56997;SDS011;42890;44.244;22.530;2023-02-24T05:18:54;41.60;;;31.50;;
56997;SDS011;42890;44.244;22.530;2023-02-24T05:21:39;43.95;;;32.45;;
56997;SDS011;42890;44.244;22.530;2023-02-24T05:24:06;34.83;;;30.80;;
56997;SDS011;42890;44.244;22.530;2023-02-24T05:26:36;34.58;;;30.20;;
56997;SDS011;42890;44.244;22.530;2023-02-24T05:29:03;36.40;;;29.63;;
56997;SDS011;42890;44.244;22.530;2023-02-24T05:31:29;33.25;;;29.90;;
56997;SDS011;42890;44.244;22.530;2023-02-24T05:33:57;47.33;;;31.38;;
56997;SDS011;42890;44.244;22.530;2023-02-24T05:36:24;39.05;;;30.90;;
56997;SDS011;42890;44.244;22.530;2023-02-24T05:38:51;31.52;;;28.48;;
56997;SDS011;42890;44.244;22.530;2023-02-24T05:41:28;34.88;;;29.73;;
56997;SDS011;42890;44.244;22.530;2023-02-24T05:44:00;38.38;;;32.15;;
56997;SDS011;42890;44.244;22.530;2023-02-24T05:46:29;40.58;;;32.97;;
56997;SDS011;42890;44.244;22.530;2023-02-24T05:49:00;41.22;;;33.75;;
56997;SDS011;42890;44.244;22.530;2023-02-24T05:51:27;39.75;;;33.28;;
56997;SDS011;42890;44.244;22.530;2023-02-24T05:54:00;42.92;;;34.80;;
56997;SDS011;42890;44.244;22.530;2023-02-24T05:56:28;38.50;;;34.42;;
56997;SDS011;42890;44.244;22.530;2023-02-24T05:58:54;36.63;;;32.53;;
56997;SDS011;42890;44.244;22.530;2023-02-24T06:01:30;43.88;;;33.92;;
56997;SDS011;42890;44.244;22.530;2023-02-24T06:03:57;46.67;;;33.03;;
56997;SDS011;42890;44.244;22.530;2023-02-24T06:06:39;37.13;;;33.17;;
56997;SDS011;42890;44.244;22.530;2023-02-24T06:09:07;42.33;;;34.05;;
56997;SDS011;42890;44.244;22.530;2023-02-24T06:11:40;44.88;;;34.35;;
56997;SDS011;42890;44.244;22.530;2023-02-24T06:14:07;38.97;;;34.72;;
56997;SDS011;42890;44.244;22.530;2023-02-24T06:16:34;37.95;;;33.45;;
56997;SDS011;42890;44.244;22.530;2023-02-24T06:19:00;46.00;;;35.70;;
56997;SDS011;42890;44.244;22.530;2023-02-24T06:21:26;37.55;;;33.08;;
56997;SDS011;42890;44.244;22.530;2023-02-24T06:23:56;39.83;;;33.05;;
56997;SDS011;42890;44.244;22.530;2023-02-24T06:26:25;44.97;;;33.20;;
56997;SDS011;42890;44.244;22.530;2023-02-24T06:28:56;40.65;;;33.55;;
56997;SDS011;42890;44.244;22.530;2023-02-24T06:31:23;35.58;;;31.80;;
56997;SDS011;42890;44.244;22.530;2023-02-24T06:33:49;40.05;;;32.85;;
56997;SDS011;42890;44.244;22.530;2023-02-24T06:36:17;37.50;;;33.35;;
56997;SDS011;42890;44.244;22.530;2023-02-24T06:38:43;35.08;;;31.27;;
56997;SDS011;42890;44.244;22.530;2023-02-24T06:41:10;37.78;;;29.35;;
56997;SDS011;42890;44.244;22.530;2023-02-24T06:43:39;34.03;;;29.73;;
56997;SDS011;42890;44.244;22.530;2023-02-24T06:46:07;35.25;;;31.15;;
56997;SDS011;42890;44.244;22.530;2023-02-24T06:48:34;39.35;;;32.05;;
56997;SDS011;42890;44.244;22.530;2023-02-24T06:51:07;42.28;;;30.70;;
56997;SDS011;42890;44.244;22.530;2023-02-24T06:53:34;89.20;;;45.50;;
56997;SDS011;42890;44.244;22.530;2023-02-24T06:56:07;34.17;;;30.15;;
56997;SDS011;42890;44.244;22.530;2023-02-24T06:58:42;42.20;;;33.47;;
56997;SDS011;42890;44.244;22.530;2023-02-24T07:01:11;42.42;;;31.27;;
56997;SDS011;42890;44.244;22.530;2023-02-24T07:03:38;83.70;;;44.40;;
56997;SDS011;42890;44.244;22.530;2023-02-24T07:06:05;43.92;;;32.83;;
56997;SDS011;42890;44.244;22.530;2023-02-24T07:08:50;37.28;;;30.92;;
56997;SDS011;42890;44.244;22.530;2023-02-24T07:11:17;35.60;;;32.03;;
56997;SDS011;42890;44.244;22.530;2023-02-24T07:13:45;39.13;;;31.38;;
56997;SDS011;42890;44.244;22.530;2023-02-24T07:16:14;35.00;;;31.38;;
56997;SDS011;42890;44.244;22.530;2023-02-24T07:18:41;41.03;;;32.50;;
56997;SDS011;42890;44.244;22.530;2023-02-24T07:21:10;36.10;;;32.22;;
56997;SDS011;42890;44.244;22.530;2023-02-24T07:23:37;44.80;;;32.72;;
56997;SDS011;42890;44.244;22.530;2023-02-24T07:26:11;41.45;;;32.17;;
56997;SDS011;42890;44.244;22.530;2023-02-24T07:28:37;55.90;;;35.53;;
56997;SDS011;42890;44.244;22.530;2023-02-24T07:31:08;39.47;;;34.25;;
56997;SDS011;42890;44.244;22.530;2023-02-24T07:33:38;41.42;;;33.70;;
56997;SDS011;42890;44.244;22.530;2023-02-24T07:36:04;45.50;;;33.05;;
56997;SDS011;42890;44.244;22.530;2023-02-24T07:38:35;48.97;;;36.80;;
56997;SDS011;42890;44.244;22.530;2023-02-24T07:41:02;37.17;;;33.03;;
56997;SDS011;42890;44.244;22.530;2023-02-24T07:43:31;36.78;;;32.88;;
56997;SDS011;42890;44.244;22.530;2023-02-24T07:46:03;39.70;;;33.88;;
56997;SDS011;42890;44.244;22.530;2023-02-24T07:48:29;41.80;;;34.38;;
56997;SDS011;42890;44.244;22.530;2023-02-24T07:50:55;37.88;;;33.92;;
56997;SDS011;42890;44.244;22.530;2023-02-24T07:53:23;45.42;;;33.58;;
56997;SDS011;42890;44.244;22.530;2023-02-24T07:55:52;36.90;;;31.85;;
56997;SDS011;42890;44.244;22.530;2023-02-24T07:58:18;41.08;;;33.95;;
56997;SDS011;42890;44.244;22.530;2023-02-24T08:00:47;41.20;;;34.97;;
56997;SDS011;42890;44.244;22.530;2023-02-24T08:03:32;44.08;;;34.45;;
56997;SDS011;42890;44.244;22.530;2023-02-24T08:06:01;36.30;;;32.35;;
56997;SDS011;42890;44.244;22.530;2023-02-24T08:08:39;43.22;;;33.03;;
56997;SDS011;42890;44.244;22.530;2023-02-24T08:11:35;39.00;;;32.83;;
56997;SDS011;42890;44.244;22.530;2023-02-24T08:14:06;39.67;;;31.38;;
56997;SDS011;42890;44.244;22.530;2023-02-24T08:16:35;40.20;;;31.05;;
56997;SDS011;42890;44.244;22.530;2023-02-24T08:19:05;37.40;;;30.55;;
56997;SDS011;42890;44.244;22.530;2023-02-24T08:21:31;38.40;;;30.30;;
56997;SDS011;42890;44.244;22.530;2023-02-24T08:24:05;40.85;;;30.02;;
56997;SDS011;42890;44.244;22.530;2023-02-24T08:26:31;36.80;;;30.92;;
56997;SDS011;42890;44.244;22.530;2023-02-24T08:29:01;33.70;;;29.00;;
56997;SDS011;42890;44.244;22.530;2023-02-24T08:31:31;36.22;;;30.80;;
56997;SDS011;42890;44.244;22.530;2023-02-24T08:33:57;36.88;;;29.05;;
56997;SDS011;42890;44.244;22.530;2023-02-24T08:36:23;38.13;;;28.30;;
56997;SDS011;42890;44.244;22.530;2023-02-24T08:38:50;46.72;;;34.25;;
56997;SDS011;42890;44.244;22.530;2023-02-24T08:41:17;183.80;;;87.82;;
56997;SDS011;42890;44.244;22.530;2023-02-24T08:43:45;49.05;;;38.70;;
56997;SDS011;42890;44.244;22.530;2023-02-24T08:48:46;35.05;;;29.58;;
56997;SDS011;42890;44.244;22.530;2023-02-24T08:51:14;43.00;;;29.73;;
56997;SDS011;42890;44.244;22.530;2023-02-24T08:53:42;38.88;;;29.73;;
56997;SDS011;42890;44.244;22.530;2023-02-24T08:56:09;42.05;;;29.08;;
56997;SDS011;42890;44.244;22.530;2023-02-24T08:58:36;55.67;;;41.28;;
56997;SDS011;42890;44.244;22.530;2023-02-24T09:01:05;52.42;;;30.23;;
56997;SDS011;42890;44.244;22.530;2023-02-24T09:03:43;53.78;;;33.15;;
56997;SDS011;42890;44.244;22.530;2023-02-24T09:06:10;50.55;;;38.38;;
56997;SDS011;42890;44.244;22.530;2023-02-24T09:08:38;40.72;;;31.73;;
56997;SDS011;42890;44.244;22.530;2023-02-24T09:11:08;44.40;;;33.15;;
56997;SDS011;42890;44.244;22.530;2023-02-24T09:13:35;49.05;;;33.92;;
56997;SDS011;42890;44.244;22.530;2023-02-24T09:16:07;53.50;;;32.88;;
56997;SDS011;42890;44.244;22.530;2023-02-24T09:18:41;36.13;;;29.45;;
56997;SDS011;42890;44.244;22.530;2023-02-24T09:21:08;44.00;;;32.83;;
56997;SDS011;42890;44.244;22.530;2023-02-24T09:24:00;43.97;;;32.03;;
56997;SDS011;42890;44.244;22.530;2023-02-24T09:26:34;41.92;;;33.15;;
56997;SDS011;42890;44.244;22.530;2023-02-24T09:29:23;40.63;;;31.35;;
56997;SDS011;42890;44.244;22.530;2023-02-24T09:31:59;48.45;;;35.50;;
56997;SDS011;42890;44.244;22.530;2023-02-24T09:36:57;45.63;;;30.40;;
56997;SDS011;42890;44.244;22.530;2023-02-24T09:39:30;42.85;;;32.38;;
56997;SDS011;42890;44.244;22.530;2023-02-24T09:42:18;37.42;;;29.38;;
56997;SDS011;42890;44.244;22.530;2023-02-24T09:44:45;37.80;;;29.35;;
56997;SDS011;42890;44.244;22.530;2023-02-24T09:52:39;46.22;;;31.15;;
56997;SDS011;42890;44.244;22.530;2023-02-24T09:55:22;36.10;;;30.35;;
56997;SDS011;42890;44.244;22.530;2023-02-24T10:00:36;41.00;;;31.63;;
56997;SDS011;42890;44.244;22.530;2023-02-24T10:06:00;42.13;;;31.88;;
56997;SDS011;42890;44.244;22.530;2023-02-24T10:08:37;43.78;;;33.00;;
56997;SDS011;42890;44.244;22.530;2023-02-24T10:11:05;47.80;;;33.53;;
56997;SDS011;42890;44.244;22.530;2023-02-24T10:13:33;41.90;;;33.45;;
56997;SDS011;42890;44.244;22.530;2023-02-24T10:16:01;51.95;;;34.35;;
56997;SDS011;42890;44.244;22.530;2023-02-24T10:18:36;44.10;;;33.63;;
56997;SDS011;42890;44.244;22.530;2023-02-24T10:21:25;60.15;;;33.40;;
56997;SDS011;42890;44.244;22.530;2023-02-24T10:24:04;54.90;;;37.75;;
56997;SDS011;42890;44.244;22.530;2023-02-24T10:26:50;38.15;;;33.80;;
56997;SDS011;42890;44.244;22.530;2023-02-24T10:31:49;49.70;;;33.72;;
56997;SDS011;42890;44.244;22.530;2023-02-24T10:34:22;41.72;;;31.90;;
56997;SDS011;42890;44.244;22.530;2023-02-24T10:37:09;35.85;;;30.05;;
56997;SDS011;42890;44.244;22.530;2023-02-24T10:39:36;40.88;;;32.72;;
56997;SDS011;42890;44.244;22.530;2023-02-24T10:42:07;38.90;;;33.80;;
56997;SDS011;42890;44.244;22.530;2023-02-24T10:44:45;42.20;;;33.17;;
56997;SDS011;42890;44.244;22.530;2023-02-24T10:49:47;40.05;;;30.17;;
56997;SDS011;42890;44.244;22.530;2023-02-24T10:55:09;58.63;;;42.17;;
56997;SDS011;42890;44.244;22.530;2023-02-24T11:01:24;40.25;;;28.85;;
56997;SDS011;42890;44.244;22.530;2023-02-24T11:04:30;35.58;;;28.98;;
56997;SDS011;42890;44.244;22.530;2023-02-24T11:07:04;33.20;;;28.88;;
56997;SDS011;42890;44.244;22.530;2023-02-24T11:09:34;38.80;;;31.98;;
56997;SDS011;42890;44.244;22.530;2023-02-24T11:12:20;47.63;;;35.78;;
56997;SDS011;42890;44.244;22.530;2023-02-24T11:15:14;42.17;;;31.33;;
56997;SDS011;42890;44.244;22.530;2023-02-24T11:18:00;51.63;;;32.28;;
56997;SDS011;42890;44.244;22.530;2023-02-24T11:20:35;36.65;;;32.67;;
56997;SDS011;42890;44.244;22.530;2023-02-24T11:23:03;41.55;;;32.15;;
56997;SDS011;42890;44.244;22.530;2023-02-24T11:25:37;36.78;;;30.55;;
56997;SDS011;42890;44.244;22.530;2023-02-24T11:30:54;64.03;;;53.38;;
56997;SDS011;42890;44.244;22.530;2023-02-24T11:33:27;39.65;;;32.97;;
56997;SDS011;42890;44.244;22.530;2023-02-24T11:36:02;50.80;;;42.42;;
56997;SDS011;42890;44.244;22.530;2023-02-24T11:43:56;42.15;;;36.42;;
56997;SDS011;42890;44.244;22.530;2023-02-24T11:46:25;45.85;;;35.17;;
56997;SDS011;42890;44.244;22.530;2023-02-24T11:48:55;53.30;;;46.80;;
56997;SDS011;42890;44.244;22.530;2023-02-24T11:51:23;58.80;;;46.00;;
56997;SDS011;42890;44.244;22.530;2023-02-24T11:53:52;43.67;;;35.83;;
56997;SDS011;42890;44.244;22.530;2023-02-24T11:56:22;41.60;;;35.63;;
56997;SDS011;42890;44.244;22.530;2023-02-24T11:59:10;41.78;;;32.30;;
56997;SDS011;42890;44.244;22.530;2023-02-24T12:04:35;47.40;;;35.92;;
56997;SDS011;42890;44.244;22.530;2023-02-24T12:09:44;37.45;;;30.42;;
56997;SDS011;42890;44.244;22.530;2023-02-24T12:12:16;42.85;;;32.97;;
56997;SDS011;42890;44.244;22.530;2023-02-24T12:14:49;48.25;;;37.70;;
56997;SDS011;42890;44.244;22.530;2023-02-24T12:17:17;43.30;;;36.90;;
56997;SDS011;42890;44.244;22.530;2023-02-24T12:19:48;39.42;;;33.65;;
56997;SDS011;42890;44.244;22.530;2023-02-24T12:22:16;42.90;;;34.72;;
56997;SDS011;42890;44.244;22.530;2023-02-24T12:24:47;49.13;;;39.50;;
56997;SDS011;42890;44.244;22.530;2023-02-24T12:29:49;35.83;;;31.63;;
56997;SDS011;42890;44.244;22.530;2023-02-24T12:35:17;46.70;;;37.42;;
56997;SDS011;42890;44.244;22.530;2023-02-24T12:37:59;48.42;;;39.15;;
56997;SDS011;42890;44.244;22.530;2023-02-24T12:45:49;42.95;;;34.63;;
56997;SDS011;42890;44.244;22.530;2023-02-24T12:50:50;40.20;;;35.40;;
56997;SDS011;42890;44.244;22.530;2023-02-24T12:53:40;43.55;;;33.80;;
56997;SDS011;42890;44.244;22.530;2023-02-24T12:56:23;36.45;;;32.50;;
56997;SDS011;42890;44.244;22.530;2023-02-24T12:58:51;36.67;;;32.95;;
56997;SDS011;42890;44.244;22.530;2023-02-24T13:01:29;47.63;;;36.97;;
56997;SDS011;42890;44.244;22.530;2023-02-24T13:11:56;43.85;;;32.58;;
56997;SDS011;42890;44.244;22.530;2023-02-24T13:14:33;48.30;;;34.70;;
56997;SDS011;42890;44.244;22.530;2023-02-24T13:19:36;54.80;;;48.42;;
56997;SDS011;42890;44.244;22.530;2023-02-24T13:24:41;39.60;;;35.45;;
56997;SDS011;42890;44.244;22.530;2023-02-24T13:29:46;44.42;;;37.58;;
56997;SDS011;42890;44.244;22.530;2023-02-24T13:32:29;39.28;;;35.03;;
56997;SDS011;42890;44.244;22.530;2023-02-24T13:34:57;64.22;;;49.55;;
56997;SDS011;42890;44.244;22.530;2023-02-24T13:37:34;45.15;;;40.45;;
56997;SDS011;42890;44.244;22.530;2023-02-24T13:40:11;43.70;;;38.03;;
56997;SDS011;42890;44.244;22.530;2023-02-24T13:42:40;39.08;;;34.20;;
56997;SDS011;42890;44.244;22.530;2023-02-24T13:50:14;61.53;;;50.63;;
56997;SDS011;42890;44.244;22.530;2023-02-24T14:02:49;49.67;;;44.38;;
56997;SDS011;42890;44.244;22.530;2023-02-24T14:05:29;44.45;;;39.65;;
56997;SDS011;42890;44.244;22.530;2023-02-24T14:07:56;41.08;;;36.58;;
56997;SDS011;42890;44.244;22.530;2023-02-24T14:10:26;47.13;;;39.08;;
56997;SDS011;42890;44.244;22.530;2023-02-24T14:15:54;77.75;;;54.88;;
56997;SDS011;42890;44.244;22.530;2023-02-24T14:18:21;45.17;;;39.90;;
56997;SDS011;42890;44.244;22.530;2023-02-24T14:20:48;45.70;;;40.80;;
56997;SDS011;42890;44.244;22.530;2023-02-24T14:23:32;56.22;;;45.33;;
56997;SDS011;42890;44.244;22.530;2023-02-24T14:26:00;42.67;;;37.83;;
56997;SDS011;42890;44.244;22.530;2023-02-24T14:28:28;43.83;;;39.13;;
56997;SDS011;42890;44.244;22.530;2023-02-24T14:30:56;43.65;;;39.05;;
56997;SDS011;42890;44.244;22.530;2023-02-24T14:33:36;44.42;;;39.75;;
56997;SDS011;42890;44.244;22.530;2023-02-24T14:36:03;54.75;;;45.25;;
56997;SDS011;42890;44.244;22.530;2023-02-24T14:38:31;101.30;;;79.57;;
56997;SDS011;42890;44.244;22.530;2023-02-24T14:40:58;126.50;;;70.15;;
56997;SDS011;42890;44.244;22.530;2023-02-24T14:43:24;43.67;;;39.05;;
56997;SDS011;42890;44.244;22.530;2023-02-24T14:45:51;42.50;;;38.03;;
56997;SDS011;42890;44.244;22.530;2023-02-24T14:48:28;44.35;;;39.55;;
56997;SDS011;42890;44.244;22.530;2023-02-24T14:50:56;80.40;;;57.60;;
56997;SDS011;42890;44.244;22.530;2023-02-24T14:53:22;66.50;;;57.53;;
56997;SDS011;42890;44.244;22.530;2023-02-24T14:55:52;77.07;;;63.78;;
56997;SDS011;42890;44.244;22.530;2023-02-24T15:00:52;66.57;;;51.03;;
56997;SDS011;42890;44.244;22.530;2023-02-24T15:05:55;48.58;;;42.05;;
56997;SDS011;42890;44.244;22.530;2023-02-24T15:10:51;110.88;;;75.68;;
56997;SDS011;42890;44.244;22.530;2023-02-24T15:13:25;67.40;;;56.85;;
56997;SDS011;42890;44.244;22.530;2023-02-24T15:15:53;56.88;;;49.50;;
56997;SDS011;42890;44.244;22.530;2023-02-24T15:18:24;177.35;;;109.97;;
56997;SDS011;42890;44.244;22.530;2023-02-24T15:21:03;221.27;;;139.98;;
56997;SDS011;42890;44.244;22.530;2023-02-24T15:23:33;112.35;;;79.40;;
56997;SDS011;42890;44.244;22.530;2023-02-24T15:26:00;73.93;;;64.03;;
56997;SDS011;42890;44.244;22.530;2023-02-24T15:28:28;85.15;;;67.63;;
56997;SDS011;42890;44.244;22.530;2023-02-24T15:31:13;147.43;;;92.78;;
56997;SDS011;42890;44.244;22.530;2023-02-24T15:33:41;77.30;;;57.33;;
56997;SDS011;42890;44.244;22.530;2023-02-24T15:36:14;132.23;;;85.32;;
56997;SDS011;42890;44.244;22.530;2023-02-24T15:38:42;146.45;;;92.68;;
56997;SDS011;42890;44.244;22.530;2023-02-24T15:41:09;120.47;;;74.72;;
56997;SDS011;42890;44.244;22.530;2023-02-24T15:43:37;89.53;;;65.97;;
56997;SDS011;42890;44.244;22.530;2023-02-24T15:46:23;62.65;;;53.65;;
56997;SDS011;42890;44.244;22.530;2023-02-24T15:48:51;54.53;;;48.60;;
56997;SDS011;42890;44.244;22.530;2023-02-24T15:51:28;55.97;;;48.58;;
56997;SDS011;42890;44.244;22.530;2023-02-24T15:53:56;55.40;;;49.65;;
56997;SDS011;42890;44.244;22.530;2023-02-24T15:56:22;63.42;;;53.50;;
56997;SDS011;42890;44.244;22.530;2023-02-24T15:58:48;61.60;;;55.03;;
56997;SDS011;42890;44.244;22.530;2023-02-24T16:01:15;61.10;;;54.63;;
56997;SDS011;42890;44.244;22.530;2023-02-24T16:03:41;94.95;;;62.60;;
56997;SDS011;42890;44.244;22.530;2023-02-24T16:06:11;95.82;;;65.30;;
56997;SDS011;42890;44.244;22.530;2023-02-24T16:08:39;82.13;;;65.57;;
56997;SDS011;42890;44.244;22.530;2023-02-24T16:11:09;108.10;;;68.82;;
56997;SDS011;42890;44.244;22.530;2023-02-24T16:13:35;72.20;;;54.40;;
56997;SDS011;42890;44.244;22.530;2023-02-24T16:16:02;74.90;;;54.28;;
56997;SDS011;42890;44.244;22.530;2023-02-24T16:18:29;190.65;;;104.65;;
56997;SDS011;42890;44.244;22.530;2023-02-24T16:20:55;210.60;;;126.68;;
56997;SDS011;42890;44.244;22.530;2023-02-24T16:23:22;133.40;;;83.97;;
56997;SDS011;42890;44.244;22.530;2023-02-24T16:25:50;134.50;;;73.55;;
56997;SDS011;42890;44.244;22.530;2023-02-24T16:28:20;222.30;;;102.53;;
56997;SDS011;42890;44.244;22.530;2023-02-24T16:30:47;74.55;;;56.70;;
56997;SDS011;42890;44.244;22.530;2023-02-24T16:33:15;59.28;;;51.45;;
56997;SDS011;42890;44.244;22.530;2023-02-24T16:35:42;54.95;;;48.95;;
56997;SDS011;42890;44.244;22.530;2023-02-24T16:38:12;53.75;;;45.80;;
56997;SDS011;42890;44.244;22.530;2023-02-24T16:40:39;52.17;;;46.53;;
56997;SDS011;42890;44.244;22.530;2023-02-24T16:43:05;58.47;;;49.28;;
56997;SDS011;42890;44.244;22.530;2023-02-24T16:45:31;57.65;;;48.28;;
56997;SDS011;42890;44.244;22.530;2023-02-24T16:47:59;53.35;;;47.38;;